Time;durP1;ratioP1;P1;durP2;ratioP2;P2;SDS_P1;SDS_P2;PMS_P1;PMS_P2;Temp;Humidity;BMP_temperature;BMP_pressure;BME280_temperature;BME280_humidity;BME280_pressure;Samples;Min_cycle;Max_cycle;Signal;HPM_P1;HPM_P2
2023/11/24 00:02:08;;;;;;;4.53;0.80;;;8.90;99.90;;;;;;4965826;28;20149;-68
2023/11/24 00:04:34;;;;;;;9.48;1.45;;;8.80;99.90;;;;;;4965125;28;20395;-68
2023/11/24 00:07:03;;;;;;;6.05;1.48;;;8.70;99.90;;;;;;4962492;28;20050;-68
2023/11/24 00:09:30;;;;;;;6.70;1.23;;;8.70;99.90;;;;;;4964667;28;20499;-68
2023/11/24 00:11:58;;;;;;;7.72;1.60;;;8.60;99.90;;;;;;4964981;28;20031;-69
2023/11/24 00:14:24;;;;;;;8.48;1.10;;;8.60;99.90;;;;;;4961646;28;20018;-68
2023/11/24 00:16:50;;;;;;;8.35;1.60;;;8.60;99.90;;;;;;4965830;28;20399;-68
2023/11/24 00:19:16;;;;;;;8.10;1.40;;;8.60;99.90;;;;;;4962415;28;20481;-68
2023/11/24 00:21:49;;;;;;;12.02;1.40;;;8.60;99.90;;;;;;4965186;28;20030;-68
2023/11/24 00:24:16;;;;;;;9.18;1.55;;;8.50;99.90;;;;;;4949537;28;20030;-68
2023/11/24 00:26:42;;;;;;;10.95;1.30;;;8.50;99.90;;;;;;4966738;28;20046;-68
2023/11/24 00:29:09;;;;;;;7.80;1.02;;;8.50;99.90;;;;;;4963580;28;20090;-68
2023/11/24 00:31:36;;;;;;;12.20;1.55;;;8.40;99.90;;;;;;4946709;28;20188;-68
2023/11/24 00:34:02;;;;;;;8.77;1.20;;;8.40;99.90;;;;;;4965371;28;20038;-68
2023/11/24 00:36:28;;;;;;;11.07;1.83;;;8.40;99.90;;;;;;4964307;28;20042;-68
2023/11/24 00:38:54;;;;;;;9.55;1.60;;;8.40;99.90;;;;;;4963345;28;20118;-68
2023/11/24 00:41:20;;;;;;;12.70;1.98;;;8.40;99.90;;;;;;4963697;28;20042;-68
2023/11/24 00:43:48;;;;;;;8.35;1.55;;;8.50;99.90;;;;;;4970626;28;20558;-68
2023/11/24 00:46:15;;;;;;;6.55;1.38;;;8.50;99.90;;;;;;4963090;28;20549;-68
2023/11/24 00:48:41;;;;;;;7.63;1.35;;;8.40;99.90;;;;;;4950236;28;20542;-68
2023/11/24 00:51:07;;;;;;;11.90;1.52;;;8.40;99.90;;;;;;4949015;28;20547;-68
2023/11/24 00:53:34;;;;;;;8.63;1.27;;;8.30;99.90;;;;;;4967287;28;20546;-67
2023/11/24 00:56:00;;;;;;;10.93;1.63;;;8.30;99.90;;;;;;4971241;28;20388;-68
2023/11/24 00:58:26;;;;;;;12.80;1.98;;;8.30;99.90;;;;;;4954298;28;20031;-68
2023/11/24 01:00:53;;;;;;;12.05;1.58;;;8.20;99.90;;;;;;4949160;28;20035;-68
2023/11/24 01:03:24;;;;;;;12.35;1.73;;;8.20;99.90;;;;;;4962300;28;20122;-68
2023/11/24 01:05:52;;;;;;;10.02;1.35;;;8.20;99.90;;;;;;4962371;28;20034;-68
2023/11/24 01:08:19;;;;;;;9.65;1.20;;;8.20;99.90;;;;;;4963905;28;20030;-69
2023/11/24 01:10:45;;;;;;;5.88;0.95;;;8.20;99.90;;;;;;4962609;28;20035;-69
2023/11/24 01:13:11;;;;;;;10.45;0.98;;;8.10;99.90;;;;;;4946464;28;20031;-68
2023/11/24 01:15:38;;;;;;;10.20;1.58;;;8.10;99.90;;;;;;4946923;28;20043;-68
2023/11/24 01:18:06;;;;;;;6.28;1.40;;;8.00;99.90;;;;;;4962828;28;20031;-68
2023/11/24 01:20:36;;;;;;;12.75;1.58;;;8.00;99.90;;;;;;4961509;28;20093;-68
2023/11/24 01:23:04;;;;;;;13.45;1.60;;;8.00;99.90;;;;;;4949510;28;20035;-68
2023/11/24 01:25:31;;;;;;;9.27;1.67;;;7.90;99.90;;;;;;4965625;28;20022;-68
2023/11/24 01:27:58;;;;;;;11.02;1.48;;;8.00;99.90;;;;;;4964964;28;20170;-68
2023/11/24 01:30:24;;;;;;;21.33;2.10;;;7.90;99.90;;;;;;4944617;28;20043;-68
2023/11/24 01:32:51;;;;;;;8.05;1.30;;;7.90;99.90;;;;;;4963993;28;20038;-68
2023/11/24 01:35:18;;;;;;;14.70;1.90;;;7.90;99.90;;;;;;4947435;28;20121;-69
2023/11/24 01:37:45;;;;;;;9.95;1.42;;;7.90;99.90;;;;;;4963523;28;20043;-68
2023/11/24 01:40:11;;;;;;;7.88;1.10;;;7.90;99.90;;;;;;4961998;28;20032;-68
2023/11/24 01:42:37;;;;;;;5.72;1.13;;;7.80;99.90;;;;;;4961228;28;20042;-68
2023/11/24 01:45:07;;;;;;;7.18;1.30;;;7.80;99.90;;;;;;4946484;28;20037;-68
2023/11/24 01:47:34;;;;;;;14.20;1.75;;;7.80;99.90;;;;;;4948267;28;20031;-69
2023/11/24 01:50:02;;;;;;;8.55;1.45;;;7.90;99.90;;;;;;4962562;28;20070;-68
2023/11/24 01:52:28;;;;;;;8.90;1.98;;;7.90;99.90;;;;;;4947051;28;20050;-69
2023/11/24 01:54:54;;;;;;;7.50;1.10;;;8.00;99.90;;;;;;4943540;28;20043;-68
2023/11/24 01:57:21;;;;;;;8.07;1.40;;;8.10;99.90;;;;;;4947295;28;20492;-68
2023/11/24 01:59:48;;;;;;;9.48;1.20;;;8.20;99.90;;;;;;4948223;28;20023;-68
2023/11/24 02:02:20;;;;;;;14.95;2.08;;;8.20;99.90;;;;;;4950243;28;20022;-69
2023/11/24 02:04:47;;;;;;;13.45;1.52;;;8.20;99.90;;;;;;4948001;28;20082;-68
2023/11/24 02:07:13;;;;;;;9.90;1.40;;;8.20;99.90;;;;;;4947773;28;20041;-68
2023/11/24 02:09:41;;;;;;;6.03;1.70;;;8.30;99.90;;;;;;4961959;28;20145;-68
2023/11/24 02:12:07;;;;;;;9.90;1.10;;;8.30;99.90;;;;;;4962746;28;20027;-68
2023/11/24 02:14:33;;;;;;;11.65;2.08;;;8.30;99.90;;;;;;4947634;28;20031;-68
2023/11/24 02:16:59;;;;;;;5.88;1.80;;;8.30;99.90;;;;;;4939769;28;20022;-68
2023/11/24 02:19:28;;;;;;;4.70;1.00;;;8.10;99.90;;;;;;4944631;28;20469;-68
2023/11/24 02:21:54;;;;;;;8.55;1.27;;;8.00;99.90;;;;;;4952566;28;20031;-68
2023/11/24 02:24:21;;;;;;;4.88;1.10;;;7.90;99.90;;;;;;4947212;28;20637;-72
2023/11/24 02:26:47;;;;;;;8.80;1.25;;;7.90;99.90;;;;;;4947748;28;20058;-68
2023/11/24 02:29:13;;;;;;;3.38;1.00;;;7.90;99.90;;;;;;4947425;28;20693;-68
2023/11/24 02:31:39;;;;;;;12.55;1.77;;;7.80;99.90;;;;;;4950531;28;20034;-68
2023/11/24 02:34:07;;;;;;;10.95;1.27;;;7.70;99.90;;;;;;4942698;28;20399;-68
2023/11/24 02:36:36;;;;;;;9.27;1.25;;;7.70;99.90;;;;;;4948163;28;20646;-69
2023/11/24 02:39:03;;;;;;;10.10;1.50;;;7.60;99.90;;;;;;4960857;28;20035;-68
2023/11/24 02:41:32;;;;;;;8.10;1.83;;;7.50;99.90;;;;;;4948564;28;20035;-68
2023/11/24 02:43:59;;;;;;;3.95;1.00;;;7.50;99.90;;;;;;4947103;28;20027;-68
2023/11/24 02:46:26;;;;;;;10.25;1.20;;;7.50;99.90;;;;;;4963197;28;20444;-68
2023/11/24 02:48:52;;;;;;;5.38;1.08;;;7.40;99.90;;;;;;4940682;28;20091;-68
2023/11/24 02:51:18;;;;;;;12.60;1.60;;;7.40;99.90;;;;;;4946862;28;20031;-68
2023/11/24 02:53:45;;;;;;;9.73;1.35;;;7.40;99.90;;;;;;4961457;28;20043;-68
2023/11/24 02:56:11;;;;;;;12.85;0.90;;;7.40;99.90;;;;;;4960529;28;20119;-68
2023/11/24 02:58:37;;;;;;;10.90;1.13;;;7.40;99.90;;;;;;4962518;28;20034;-68
2023/11/24 03:01:05;;;;;;;5.57;1.40;;;7.40;99.90;;;;;;4928388;28;20031;-68
2023/11/24 03:03:31;;;;;;;11.50;1.77;;;7.40;99.90;;;;;;4947051;28;20023;-68
2023/11/24 03:06:05;;;;;;;11.93;1.60;;;7.40;99.90;;;;;;4957272;28;20042;-68
2023/11/24 03:08:31;;;;;;;8.00;1.60;;;7.40;99.90;;;;;;4962936;28;20045;-68
2023/11/24 03:10:58;;;;;;;8.90;1.25;;;7.40;99.90;;;;;;4948974;28;20067;-68
2023/11/24 03:13:24;;;;;;;7.80;1.27;;;7.50;99.90;;;;;;4953123;28;20511;-68
2023/11/24 03:15:51;;;;;;;7.47;1.08;;;7.50;99.90;;;;;;4961498;28;20030;-68
2023/11/24 03:18:17;;;;;;;6.35;1.17;;;7.50;99.90;;;;;;4962497;28;20086;-68
2023/11/24 03:20:44;;;;;;;6.47;1.38;;;7.50;99.90;;;;;;4964687;28;20034;-68
2023/11/24 03:23:10;;;;;;;7.78;1.00;;;7.40;99.90;;;;;;4963600;28;20050;-68
2023/11/24 03:25:36;;;;;;;7.78;1.60;;;7.40;99.90;;;;;;4945150;28;20031;-68
2023/11/24 03:28:02;;;;;;;9.68;1.27;;;7.40;99.90;;;;;;4966189;28;20811;-69
2023/11/24 03:30:30;;;;;;;9.30;1.15;;;7.40;99.90;;;;;;4961867;28;20058;-68
2023/11/24 03:32:56;;;;;;;4.32;1.30;;;7.40;99.90;;;;;;4947670;28;20030;-68
2023/11/24 03:35:22;;;;;;;5.75;1.10;;;7.40;99.90;;;;;;4957333;28;20077;-68
2023/11/24 03:37:49;;;;;;;6.07;1.10;;;7.30;99.90;;;;;;4967854;28;20046;-69
2023/11/24 03:40:16;;;;;;;7.05;1.08;;;7.30;99.90;;;;;;4954012;28;20030;-68
2023/11/24 03:42:42;;;;;;;8.27;1.08;;;7.30;99.90;;;;;;4944413;28;20031;-68
2023/11/24 03:45:09;;;;;;;8.88;0.93;;;7.30;99.90;;;;;;4947552;28;20488;-68
2023/11/24 03:47:36;;;;;;;4.72;1.00;;;7.40;99.90;;;;;;4963267;28;20038;-68
2023/11/24 03:50:02;;;;;;;5.65;1.20;;;7.40;99.90;;;;;;4945708;28;20526;-68
2023/11/24 03:52:28;;;;;;;8.57;1.65;;;7.50;99.90;;;;;;4948835;28;20062;-68
2023/11/24 03:54:54;;;;;;;4.78;0.88;;;7.50;99.90;;;;;;4964013;28;20554;-68
2023/11/24 03:57:22;;;;;;;6.55;1.05;;;7.50;99.90;;;;;;4963955;28;20058;-68
2023/11/24 03:59:48;;;;;;;4.60;0.50;;;7.60;99.90;;;;;;4948169;28;20133;-68
2023/11/24 04:02:14;;;;;;;2.40;0.30;;;7.50;99.90;;;;;;4949902;28;20134;-68
2023/11/24 04:04:40;;;;;;;3.60;0.60;;;7.40;99.90;;;;;;4960125;28;20042;-68
2023/11/24 04:07:06;;;;;;;3.75;0.65;;;7.40;99.90;;;;;;4944151;28;20034;-68
2023/11/24 04:09:32;;;;;;;5.20;0.73;;;7.40;99.90;;;;;;4961730;28;20037;-68
2023/11/24 04:11:58;;;;;;;5.55;0.77;;;7.40;99.90;;;;;;4946501;28;20084;-68
2023/11/24 04:14:26;;;;;;;1.77;0.40;;;7.40;99.90;;;;;;4963246;28;20054;-68
2023/11/24 04:16:52;;;;;;;2.08;0.93;;;7.50;99.90;;;;;;4947568;28;20037;-68
2023/11/24 04:19:18;;;;;;;5.85;1.20;;;7.50;99.90;;;;;;4941906;28;20035;-68
2023/11/24 04:21:45;;;;;;;2.90;0.50;;;7.50;99.90;;;;;;4948461;28;20037;-69
2023/11/24 04:24:11;;;;;;;5.95;0.90;;;7.50;99.90;;;;;;4959161;28;20035;-68
2023/11/24 04:26:37;;;;;;;5.30;0.60;;;7.50;99.90;;;;;;4963467;28;20094;-68
2023/11/24 04:29:03;;;;;;;6.03;0.73;;;7.40;99.90;;;;;;4950434;28;20034;-68
2023/11/24 04:31:32;;;;;;;7.20;0.80;;;7.40;99.90;;;;;;4946043;28;20034;-68
2023/11/24 04:34:00;;;;;;;6.65;1.08;;;7.40;99.90;;;;;;4969561;28;20034;-68
2023/11/24 04:36:26;;;;;;;4.20;1.23;;;7.30;99.90;;;;;;4969283;28;20114;-68
2023/11/24 04:38:52;;;;;;;8.10;1.65;;;7.40;99.90;;;;;;4966057;28;20488;-68
2023/11/24 04:41:18;;;;;;;4.55;1.33;;;7.40;99.90;;;;;;4962196;28;20034;-68
2023/11/24 04:43:45;;;;;;;4.32;0.70;;;7.40;99.90;;;;;;4965957;28;20027;-69
2023/11/24 04:46:10;;;;;;;1.38;0.60;;;7.40;99.90;;;;;;4965978;28;20112;-69
2023/11/24 04:48:38;;;;;;;5.32;0.60;;;7.40;99.90;;;;;;4965209;28;21293;-68
2023/11/24 04:51:05;;;;;;;6.72;0.70;;;7.50;99.90;;;;;;4962419;28;20031;-68
2023/11/24 04:53:32;;;;;;;5.47;0.60;;;7.50;99.90;;;;;;4962379;28;20043;-67
2023/11/24 04:55:58;;;;;;;2.92;0.43;;;7.50;99.90;;;;;;4961580;28;20034;-68
2023/11/24 04:58:24;;;;;;;2.60;0.60;;;7.50;99.90;;;;;;4960330;28;20054;-68
2023/11/24 05:00:49;;;;;;;5.30;0.52;;;7.50;99.90;;;;;;4962233;28;20027;-68
2023/11/24 05:03:16;;;;;;;4.00;1.08;;;7.40;99.90;;;;;;4952108;28;20089;-68
2023/11/24 05:05:42;;;;;;;2.25;0.63;;;7.40;99.90;;;;;;4966668;28;20047;-68
2023/11/24 05:08:08;;;;;;;5.25;1.05;;;7.20;99.90;;;;;;4964164;28;20061;-68
2023/11/24 05:10:34;;;;;;;3.75;0.75;;;7.00;99.90;;;;;;4962744;28;20582;-67
2023/11/24 05:13:00;;;;;;;3.03;0.90;;;6.90;99.90;;;;;;4963454;28;20046;-67
2023/11/24 05:15:26;;;;;;;8.55;1.20;;;6.90;99.90;;;;;;4961440;28;20026;-68
2023/11/24 05:17:52;;;;;;;6.05;0.73;;;6.80;99.90;;;;;;4960422;28;20109;-68
2023/11/24 05:20:18;;;;;;;1.90;0.57;;;6.80;99.90;;;;;;4961807;28;20117;-67
2023/11/24 05:22:45;;;;;;;3.33;1.00;;;6.80;99.90;;;;;;4959909;28;20054;-68
2023/11/24 05:25:11;;;;;;;6.07;1.27;;;6.70;99.90;;;;;;4962674;28;20027;-68
2023/11/24 05:27:38;;;;;;;8.57;1.17;;;6.70;99.90;;;;;;4958371;28;20443;-67
2023/11/24 05:30:08;;;;;;;4.45;0.80;;;6.70;99.90;;;;;;4963667;28;20059;-68
2023/11/24 05:32:37;;;;;;;5.60;1.13;;;6.70;99.90;;;;;;4962572;28;20041;-68
2023/11/24 05:35:03;;;;;;;11.80;1.20;;;6.60;99.90;;;;;;4960776;28;20083;-67
2023/11/24 05:37:30;;;;;;;3.47;0.90;;;6.70;99.90;;;;;;4958509;28;20038;-67
2023/11/24 05:39:56;;;;;;;3.55;1.02;;;6.60;99.90;;;;;;4961179;28;20039;-67
2023/11/24 05:42:22;;;;;;;8.13;1.10;;;6.60;99.90;;;;;;4960437;28;20031;-68
2023/11/24 05:44:48;;;;;;;7.53;1.27;;;6.60;99.90;;;;;;4957651;28;20037;-67
2023/11/24 05:47:15;;;;;;;0.95;0.70;;;6.60;99.90;;;;;;4947094;28;20027;-68
2023/11/24 05:49:43;;;;;;;13.57;1.65;;;6.60;99.90;;;;;;4959144;28;20131;-67
2023/11/24 05:52:15;;;;;;;7.78;0.75;;;6.70;99.90;;;;;;4959860;28;20039;-68
2023/11/24 05:54:42;;;;;;;12.07;1.83;;;6.70;99.90;;;;;;4960374;28;20039;-68
2023/11/24 05:57:08;;;;;;;7.95;1.10;;;6.70;99.90;;;;;;4962592;28;20037;-67
2023/11/24 05:59:35;;;;;;;13.48;1.20;;;6.60;99.90;;;;;;4958020;28;20066;-67
2023/11/24 06:02:03;;;;;;;7.82;1.33;;;6.70;99.90;;;;;;4943493;28;20041;-68
2023/11/24 06:04:29;;;;;;;4.05;1.40;;;6.70;99.90;;;;;;4960902;28;20165;-68
2023/11/24 06:06:55;;;;;;;3.00;0.95;;;6.70;99.90;;;;;;4960249;28;20034;-67
2023/11/24 06:09:21;;;;;;;7.95;0.98;;;6.80;99.90;;;;;;4960792;28;20035;-68
2023/11/24 06:11:46;;;;;;;5.28;0.65;;;6.80;99.90;;;;;;4963329;28;20089;-68
2023/11/24 06:14:12;;;;;;;3.10;0.75;;;6.90;99.90;;;;;;4963408;28;20507;-68
2023/11/24 06:16:39;;;;;;;4.43;1.10;;;6.90;99.90;;;;;;4961173;28;20562;-67
2023/11/24 06:19:06;;;;;;;2.67;0.82;;;6.80;99.90;;;;;;4959577;28;20506;-68
2023/11/24 06:21:32;;;;;;;7.32;1.20;;;6.80;99.90;;;;;;4960943;28;20035;-68
2023/11/24 06:23:58;;;;;;;9.45;0.93;;;6.80;99.90;;;;;;4959666;28;20675;-67
2023/11/24 06:26:25;;;;;;;5.47;0.70;;;6.70;99.90;;;;;;4963366;28;20380;-68
2023/11/24 06:28:50;;;;;;;6.95;1.30;;;6.60;99.90;;;;;;4954907;28;20534;-68
2023/11/24 06:31:17;;;;;;;5.53;0.90;;;6.60;99.90;;;;;;4963052;28;20031;-68
2023/11/24 06:33:43;;;;;;;7.28;1.00;;;6.60;99.90;;;;;;4943611;28;20128;-68
2023/11/24 06:36:09;;;;;;;2.50;0.70;;;6.50;99.90;;;;;;4957869;28;20487;-68
2023/11/24 06:38:35;;;;;;;6.43;1.00;;;6.60;99.90;;;;;;4960703;28;20636;-68
2023/11/24 06:41:01;;;;;;;6.53;1.30;;;6.60;99.90;;;;;;4955741;28;20041;-68
2023/11/24 06:43:28;;;;;;;5.63;0.85;;;6.60;99.90;;;;;;4953178;28;20074;-68
2023/11/24 06:45:54;;;;;;;6.53;1.00;;;6.50;99.90;;;;;;4962486;28;20035;-68
2023/11/24 06:48:20;;;;;;;9.13;1.15;;;6.60;99.90;;;;;;4962069;28;20101;-69
2023/11/24 06:50:46;;;;;;;5.70;1.73;;;6.60;99.90;;;;;;4961507;28;20404;-68
2023/11/24 06:53:13;;;;;;;3.75;0.70;;;6.60;99.90;;;;;;4958485;28;20045;-68
2023/11/24 06:55:39;;;;;;;10.57;1.73;;;6.60;99.90;;;;;;4952902;28;20125;-68
2023/11/24 06:58:07;;;;;;;7.15;1.50;;;6.60;99.90;;;;;;4959824;28;20031;-67
2023/11/24 07:00:34;;;;;;;11.13;1.20;;;6.60;99.90;;;;;;4960750;28;20039;-67
2023/11/24 07:03:01;;;;;;;2.65;0.70;;;6.60;99.90;;;;;;4955781;28;20436;-68
2023/11/24 07:05:27;;;;;;;4.03;0.82;;;6.70;99.90;;;;;;4960658;28;20039;-68
2023/11/24 07:07:53;;;;;;;9.32;1.10;;;6.60;99.90;;;;;;4956474;28;20813;-67
2023/11/24 07:10:20;;;;;;;2.78;0.80;;;6.60;99.90;;;;;;4957496;28;20033;-68
2023/11/24 07:12:46;;;;;;;10.40;1.33;;;6.60;99.90;;;;;;4961573;28;20066;-68
2023/11/24 07:15:12;;;;;;;4.70;1.02;;;6.60;99.90;;;;;;4963453;28;20124;-66
2023/11/24 07:17:38;;;;;;;11.00;1.73;;;6.70;99.90;;;;;;4963669;28;20031;-66
2023/11/24 07:20:06;;;;;;;4.63;0.82;;;6.70;99.90;;;;;;4959145;28;20058;-66
2023/11/24 07:22:33;;;;;;;4.03;0.68;;;6.70;99.90;;;;;;4961820;28;20063;-66
2023/11/24 07:24:59;;;;;;;4.13;1.00;;;6.70;99.90;;;;;;4954791;28;20035;-66
2023/11/24 07:27:27;;;;;;;6.60;1.15;;;6.80;99.90;;;;;;4960397;28;20054;-66
2023/11/24 07:29:52;;;;;;;5.03;1.00;;;6.90;99.90;;;;;;4962769;28;20030;-66
2023/11/24 07:32:23;;;;;;;10.38;0.95;;;6.90;99.90;;;;;;4952838;28;20042;-66
2023/11/24 07:34:49;;;;;;;7.43;1.02;;;7.00;99.90;;;;;;4957167;28;20474;-66
2023/11/24 07:37:15;;;;;;;5.82;0.70;;;6.90;99.90;;;;;;4957280;28;20046;-65
2023/11/24 07:39:41;;;;;;;6.15;0.95;;;6.90;99.90;;;;;;4959687;28;20089;-66
2023/11/24 07:42:07;;;;;;;5.30;1.30;;;6.80;99.90;;;;;;4959716;28;20426;-66
2023/11/24 07:44:33;;;;;;;8.68;1.00;;;6.80;99.90;;;;;;4944905;28;20401;-66
2023/11/24 07:46:59;;;;;;;10.70;1.50;;;6.80;99.90;;;;;;4938528;28;20026;-66
2023/11/24 07:49:26;;;;;;;6.78;2.35;;;6.80;99.90;;;;;;4959492;28;20035;-66
2023/11/24 07:51:51;;;;;;;5.80;1.65;;;6.80;99.90;;;;;;4963058;28;20355;-65
2023/11/24 07:54:18;;;;;;;2.35;1.13;;;6.90;99.90;;;;;;4957323;28;20139;-66
2023/11/24 07:56:44;;;;;;;4.97;1.83;;;7.00;99.90;;;;;;4965382;28;20050;-66
2023/11/24 07:59:11;;;;;;;7.50;1.10;;;7.10;99.90;;;;;;4963845;28;20031;-66
2023/11/24 08:01:38;;;;;;;5.30;1.20;;;7.20;99.90;;;;;;4965410;28;20045;-66
2023/11/24 08:04:05;;;;;;;4.07;0.90;;;7.20;99.90;;;;;;4949526;28;20554;-66
2023/11/24 08:06:32;;;;;;;4.45;1.15;;;7.20;99.90;;;;;;4962612;28;20451;-66
2023/11/24 08:09:00;;;;;;;4.55;1.13;;;7.20;99.90;;;;;;4947763;28;20801;-65
2023/11/24 08:11:27;;;;;;;4.90;0.77;;;7.20;99.90;;;;;;4959685;28;20043;-66
2023/11/24 08:13:53;;;;;;;4.82;0.70;;;7.20;99.90;;;;;;4961242;28;20058;-65
2023/11/24 08:16:19;;;;;;;1.92;0.75;;;7.10;99.90;;;;;;4965839;28;20643;-66
2023/11/24 08:18:46;;;;;;;4.15;1.00;;;7.10;99.90;;;;;;4966248;28;20038;-66
2023/11/24 08:21:13;;;;;;;4.68;1.45;;;7.10;99.90;;;;;;4965600;28;20034;-66
2023/11/24 08:23:42;;;;;;;2.70;1.20;;;7.10;99.90;;;;;;4944386;28;20031;-66
2023/11/24 08:26:13;;;;;;;3.78;0.60;;;7.10;99.90;;;;;;4966931;28;20426;-66
2023/11/24 08:28:42;;;;;;;4.30;0.70;;;7.20;99.90;;;;;;4961437;28;21776;-66
2023/11/24 08:31:13;;;;;;;11.30;1.02;;;7.40;99.90;;;;;;4966915;28;20034;-66
2023/11/24 08:33:39;;;;;;;2.90;0.73;;;7.40;99.90;;;;;;4962803;28;20582;-66
2023/11/24 08:36:06;;;;;;;3.78;1.08;;;7.40;99.90;;;;;;4964829;28;20391;-66
2023/11/24 08:38:32;;;;;;;2.92;0.57;;;7.40;99.90;;;;;;4948901;28;20129;-66
2023/11/24 08:40:58;;;;;;;6.00;1.08;;;7.60;99.90;;;;;;4965012;28;20113;-66
2023/11/24 08:43:24;;;;;;;6.72;1.75;;;7.70;99.90;;;;;;4966197;28;20610;-66
2023/11/24 08:45:50;;;;;;;7.28;1.60;;;7.90;99.90;;;;;;4964052;28;20030;-66
2023/11/24 08:48:16;;;;;;;12.18;3.05;;;8.00;99.90;;;;;;4964033;28;20075;-66
2023/11/24 08:50:42;;;;;;;8.02;2.20;;;8.10;99.90;;;;;;4962348;28;20081;-66
2023/11/24 08:53:08;;;;;;;7.45;1.48;;;8.20;99.80;;;;;;4960574;28;20039;-66
2023/11/24 08:55:35;;;;;;;2.92;0.93;;;8.30;99.40;;;;;;4965087;28;20399;-66
2023/11/24 08:58:00;;;;;;;10.10;1.77;;;8.50;98.80;;;;;;4945023;28;20043;-66
2023/11/24 09:00:29;;;;;;;3.63;1.00;;;8.70;98.80;;;;;;4959753;28;20035;-66
2023/11/24 09:02:57;;;;;;;6.43;1.23;;;9.00;98.20;;;;;;4962084;28;20034;-63
2023/11/24 09:05:24;;;;;;;3.97;2.03;;;9.60;97.20;;;;;;4947078;28;20415;-67
2023/11/24 09:07:50;;;;;;;4.15;0.80;;;10.10;95.40;;;;;;4961622;28;20082;-65
2023/11/24 09:10:16;;;;;;;3.55;1.00;;;10.50;94.10;;;;;;4960100;28;20070;-66
2023/11/24 09:12:42;;;;;;;4.63;1.30;;;11.10;94.00;;;;;;4967153;28;20117;-68
2023/11/24 09:15:10;;;;;;;6.25;1.30;;;11.50;92.80;;;;;;4964325;28;20121;-66
2023/11/24 09:17:35;;;;;;;4.43;1.23;;;11.30;92.40;;;;;;4966166;28;20815;-67
2023/11/24 09:20:05;;;;;;;5.60;0.98;;;11.20;92.70;;;;;;4962601;28;20026;-66
2023/11/24 09:22:31;;;;;;;8.77;1.80;;;11.10;93.00;;;;;;4962549;28;20031;-65
2023/11/24 09:25:01;;;;;;;7.38;1.00;;;11.30;92.80;;;;;;4962046;28;20070;-67
2023/11/24 09:27:26;;;;;;;5.75;1.40;;;11.20;92.00;;;;;;4958336;28;20039;-67
2023/11/24 09:29:52;;;;;;;11.70;4.07;;;11.00;92.00;;;;;;4953583;28;20034;-67
2023/11/24 09:32:19;;;;;;;5.35;1.35;;;10.80;91.90;;;;;;4959508;28;20039;-67
2023/11/24 09:34:47;;;;;;;4.40;1.20;;;11.20;92.50;;;;;;4957779;28;20027;-67
2023/11/24 09:37:14;;;;;;;3.70;1.20;;;11.90;91.10;;;;;;4963404;28;20117;-67
2023/11/24 09:39:40;;;;;;;1.67;0.50;;;12.10;90.00;;;;;;4961127;28;20039;-67
2023/11/24 09:42:11;;;;;;;3.80;1.05;;;11.90;89.80;;;;;;4958772;28;20475;-67
2023/11/24 09:44:40;;;;;;;6.80;2.75;;;11.60;90.30;;;;;;4959506;28;20027;-67
2023/11/24 09:47:07;;;;;;;4.65;1.65;;;11.20;91.10;;;;;;4963573;28;20034;-67
2023/11/24 09:49:33;;;;;;;2.10;1.63;;;11.30;91.50;;;;;;4941820;28;20039;-67
2023/11/24 09:51:59;;;;;;;4.93;1.10;;;11.50;91.60;;;;;;4957450;28;20066;-68
2023/11/24 09:54:27;;;;;;;3.35;0.85;;;12.20;90.20;;;;;;4963834;28;20035;-67
2023/11/24 09:56:53;;;;;;;4.47;2.40;;;12.50;89.80;;;;;;4962088;28;20038;-67
2023/11/24 09:59:19;;;;;;;10.52;2.78;;;13.00;88.70;;;;;;4964789;28;20030;-68
2023/11/24 10:01:47;;;;;;;4.78;1.50;;;13.90;85.40;;;;;;4960774;28;20019;-68
2023/11/24 10:04:15;;;;;;;4.28;1.55;;;14.60;80.40;;;;;;4963834;28;20054;-68
2023/11/24 10:06:43;;;;;;;3.28;0.68;;;14.70;79.50;;;;;;4963460;28;20030;-68
2023/11/24 10:09:15;;;;;;;6.38;1.00;;;14.50;79.60;;;;;;4960109;28;20034;-68
2023/11/24 10:11:40;;;;;;;4.05;0.80;;;14.30;80.10;;;;;;4961497;28;20077;-68
2023/11/24 10:14:07;;;;;;;2.55;1.00;;;14.80;78.50;;;;;;4958709;28;20070;-68
2023/11/24 10:16:39;;;;;;;5.88;1.30;;;15.30;74.80;;;;;;4960934;28;20070;-68
2023/11/24 10:19:14;;;;;;;3.00;0.57;;;15.00;73.50;;;;;;4958292;28;20026;-68
2023/11/24 10:21:44;;;;;;;4.10;0.90;;;14.30;74.80;;;;;;4963400;28;20029;-67
2023/11/24 10:24:10;;;;;;;2.95;0.90;;;13.80;78.70;;;;;;4962094;28;20054;-68
2023/11/24 10:26:36;;;;;;;10.63;4.03;;;13.70;78.50;;;;;;4959778;28;20122;-68
2023/11/24 10:29:02;;;;;;;5.72;1.20;;;13.70;79.00;;;;;;4964544;28;20141;-69
2023/11/24 10:31:30;;;;;;;7.53;1.35;;;14.30;77.10;;;;;;4957701;28;20073;-69
2023/11/24 10:33:59;;;;;;;4.20;0.90;;;15.50;72.60;;;;;;4960743;28;20022;-69
2023/11/24 10:36:26;;;;;;;3.53;0.73;;;16.40;70.50;;;;;;4958786;28;20030;-69
2023/11/24 10:39:00;;;;;;;2.35;0.90;;;17.20;66.10;;;;;;4960667;28;20070;-69
2023/11/24 10:41:28;;;;;;;4.65;0.80;;;17.50;65.00;;;;;;4943693;28;20039;-68
2023/11/24 10:43:56;;;;;;;4.68;1.00;;;17.60;64.20;;;;;;4964307;28;20031;-71
2023/11/24 10:46:27;;;;;;;2.25;1.30;;;16.90;65.10;;;;;;4959080;28;20039;-70
2023/11/24 10:49:12;;;;;;;1.55;0.60;;;17.10;64.40;;;;;;4958813;28;20030;-70
2023/11/24 10:52:00;;;;;;;4.75;0.70;;;17.60;62.00;;;;;;4960195;28;20039;-69
2023/11/24 10:54:39;;;;;;;2.95;0.80;;;17.90;61.00;;;;;;4940214;28;20100;-70
2023/11/24 10:57:06;;;;;;;4.72;1.00;;;18.40;60.30;;;;;;4962118;28;20161;-69
2023/11/24 10:59:35;;;;;;;5.30;2.42;;;18.30;59.60;;;;;;4960061;28;20134;-69
2023/11/24 11:02:06;;;;;;;9.20;2.90;;;17.70;60.30;;;;;;4957944;28;20046;-70
2023/11/24 11:04:39;;;;;;;7.05;2.40;;;16.50;63.40;;;;;;4958670;28;20035;-70
2023/11/24 11:07:19;;;;;;;7.25;3.05;;;15.20;67.40;;;;;;4958590;28;20453;-70
2023/11/24 11:09:58;;;;;;;8.88;1.52;;;14.30;71.20;;;;;;4961687;28;20043;-69
2023/11/24 11:12:51;;;;;;;4.10;0.98;;;13.50;73.00;;;;;;4946948;28;20058;-69
2023/11/24 11:15:25;;;;;;;3.20;1.00;;;12.70;74.30;;;;;;4950771;28;20122;-72
2023/11/24 11:18:14;;;;;;;5.05;1.35;;;12.20;77.60;;;;;;4958799;28;20045;-71
2023/11/24 11:20:42;;;;;;;6.75;2.55;;;11.80;80.00;;;;;;4960609;28;20035;-71
2023/11/24 11:23:09;;;;;;;5.60;1.42;;;11.60;80.80;;;;;;4960535;28;20027;-66
2023/11/24 11:25:35;;;;;;;2.42;1.65;;;11.30;81.60;;;;;;4957307;28;20054;-70
2023/11/24 11:28:20;;;;;;;5.75;1.10;;;11.10;84.00;;;;;;4961324;28;20075;-69
2023/11/24 11:30:47;;;;;;;9.82;1.42;;;10.90;83.70;;;;;;4946256;28;20035;-69
2023/11/24 11:33:13;;;;;;;6.40;1.35;;;10.80;83.80;;;;;;4961570;28;20058;-69
2023/11/24 11:35:42;;;;;;;2.67;1.10;;;10.60;83.80;;;;;;4963693;28;20046;-70
2023/11/24 11:38:13;;;;;;;1.70;0.60;;;10.60;86.90;;;;;;4960032;28;20098;-70
2023/11/24 11:40:44;;;;;;;3.60;0.60;;;10.50;87.30;;;;;;4962635;28;20039;-69
2023/11/24 11:43:14;;;;;;;11.10;1.90;;;10.50;86.80;;;;;;4960677;28;20629;-70
2023/11/24 11:45:51;;;;;;;8.02;1.02;;;10.40;87.20;;;;;;4965562;28;20086;-69
2023/11/24 11:48:17;;;;;;;5.25;0.90;;;10.40;87.70;;;;;;4961182;28;20043;-69
2023/11/24 11:51:00;;;;;;;7.10;1.65;;;10.40;87.90;;;;;;4964132;28;20362;-69
2023/11/24 11:53:29;;;;;;;5.65;1.13;;;10.40;87.60;;;;;;4961409;28;20031;-69
2023/11/24 11:55:55;;;;;;;13.02;1.25;;;10.40;87.40;;;;;;4961819;28;20030;-67
2023/11/24 11:58:25;;;;;;;2.67;1.00;;;10.20;87.30;;;;;;4963189;28;20747;-69
2023/11/24 12:00:54;;;;;;;4.07;0.90;;;10.00;89.00;;;;;;4961208;28;20031;-69
2023/11/24 12:03:22;;;;;;;6.35;0.93;;;9.90;88.90;;;;;;4960591;28;20051;-69
2023/11/24 12:05:51;;;;;;;7.20;0.88;;;9.80;89.40;;;;;;4958776;28;20022;-69
2023/11/24 12:08:18;;;;;;;5.25;0.77;;;9.80;89.90;;;;;;4962262;28;20035;-70
2023/11/24 12:10:45;;;;;;;4.38;0.85;;;9.70;90.30;;;;;;4960711;28;20065;-70
2023/11/24 12:13:15;;;;;;;1.88;0.70;;;9.70;90.20;;;;;;4958623;28;20050;-70
2023/11/24 12:15:44;;;;;;;4.32;1.20;;;9.70;90.20;;;;;;4962676;28;20538;-69
2023/11/24 12:18:14;;;;;;;5.57;1.40;;;9.70;90.30;;;;;;4961466;28;20118;-69
2023/11/24 12:20:41;;;;;;;6.90;1.00;;;9.70;90.30;;;;;;4965114;28;20027;-70
2023/11/24 12:23:10;;;;;;;7.15;1.13;;;9.70;89.90;;;;;;4960523;28;20023;-70
2023/11/24 12:25:38;;;;;;;2.72;0.70;;;9.70;90.20;;;;;;4962428;28;20118;-70
2023/11/24 12:28:09;;;;;;;4.53;1.10;;;9.60;90.00;;;;;;4961741;28;20041;-69
2023/11/24 12:30:42;;;;;;;3.92;1.05;;;9.60;90.30;;;;;;4959892;28;20053;-69
2023/11/24 12:33:24;;;;;;;3.05;1.05;;;9.60;90.40;;;;;;4961338;28;20035;-70
2023/11/24 12:35:51;;;;;;;4.13;1.08;;;9.60;90.90;;;;;;4959237;28;20479;-70
2023/11/24 12:38:21;;;;;;;4.68;0.88;;;9.70;90.10;;;;;;4949863;28;20034;-69
2023/11/24 12:40:49;;;;;;;2.38;0.93;;;9.60;89.70;;;;;;4958671;28;20522;-69
2023/11/24 12:43:15;;;;;;;3.60;0.60;;;9.60;89.70;;;;;;4963202;28;20702;-69
2023/11/24 12:45:42;;;;;;;3.92;0.70;;;9.50;88.80;;;;;;4942427;28;20045;-70
2023/11/24 12:48:27;;;;;;;3.78;0.55;;;9.40;90.50;;;;;;4958686;28;20067;-69
2023/11/24 12:50:56;;;;;;;4.03;0.68;;;9.30;90.60;;;;;;4959499;28;20073;-69
2023/11/24 12:53:23;;;;;;;2.13;0.50;;;9.30;90.70;;;;;;4960238;28;20514;-69
2023/11/24 12:55:49;;;;;;;4.35;0.88;;;9.40;90.70;;;;;;4961554;28;20062;-69